createdAt,value
2022-11-13T00:00:23.330Z,7.65
2022-11-13T00:03:47.279Z,7.59
2022-11-13T00:07:04.034Z,7.69
2022-11-13T00:10:28.403Z,7.93
2022-11-13T00:13:52.118Z,7.75
2022-11-13T00:17:16.611Z,7.85
2022-11-13T00:20:40.792Z,7.92
2022-11-13T00:24:04.515Z,8.21
2022-11-13T00:27:28.678Z,8.36
2022-11-13T00:30:52.022Z,8.38
2022-11-13T00:37:42.807Z,7.71
2022-11-13T00:41:06.515Z,7.75
2022-11-13T00:44:30.107Z,7.52
2022-11-13T00:47:47.656Z,7.74
2022-11-13T00:50:58.024Z,7.79
2022-11-13T00:54:20.971Z,7.84
2022-11-13T00:57:44.885Z,7.64
2022-11-13T01:01:08.644Z,7.83
2022-11-13T01:04:35.239Z,7.77
2022-11-13T01:07:52.582Z,7.82
2022-11-13T01:11:26.609Z,7.73
2022-11-13T01:14:50.196Z,7.79
2022-11-13T01:18:13.788Z,7.89
2022-11-13T01:21:40.292Z,7.90
2022-11-13T01:25:04.305Z,7.87
2022-11-13T01:28:28.870Z,7.98
2022-11-13T01:31:53.041Z,8.15
2022-11-13T01:35:16.126Z,8.17
2022-11-13T01:38:39.801Z,8.14
2022-11-13T01:42:04.195Z,8.18
2022-11-13T01:46:15.696Z,8.26
2022-11-13T01:49:51.251Z,7.97
2022-11-13T01:53:15.081Z,7.92
2022-11-13T01:56:38.720Z,8.01
2022-11-13T02:00:06.404Z,7.84
2022-11-13T02:03:30.503Z,7.82
2022-11-13T02:07:12.027Z,7.90
2022-11-13T02:10:36.117Z,8.04
2022-11-13T02:14:00.391Z,8.08
2022-11-13T02:17:32.091Z,7.98
2022-11-13T02:21:35.948Z,7.77
2022-11-13T02:25:00.593Z,7.76
2022-11-13T02:28:25.988Z,7.80
2022-11-13T02:31:48.832Z,8.07
2022-11-13T02:35:12.116Z,7.83
2022-11-13T02:38:35.165Z,8.04
2022-11-13T02:41:58.939Z,7.93
2022-11-13T02:45:24.133Z,8.14
2022-11-13T02:48:46.922Z,8.22
2022-11-13T02:52:10.670Z,8.23
2022-11-13T02:55:35.161Z,8.22
2022-11-13T02:58:59.155Z,7.94
2022-11-13T03:02:23.899Z,8.06
2022-11-13T03:05:48.599Z,8.04
2022-11-13T03:09:12.302Z,8.02
2022-11-13T03:12:36.083Z,7.98
2022-11-13T03:16:00.202Z,8.09
2022-11-13T03:19:23.794Z,8.20
2022-11-13T03:22:47.619Z,8.18
2022-11-13T03:26:11.291Z,8.29
2022-11-13T03:29:35.079Z,8.41
2022-11-13T03:32:59.236Z,8.43
2022-11-13T03:36:23.127Z,8.35
2022-11-13T03:39:32.902Z,8.56
2022-11-13T03:42:51.166Z,8.82
2022-11-13T03:46:15.105Z,8.85
2022-11-13T03:49:39.615Z,8.85
2022-11-13T03:53:04.010Z,8.81
2022-11-13T03:56:27.605Z,8.90
2022-11-13T03:59:50.119Z,8.91
2022-11-13T04:03:15.208Z,9.10
2022-11-13T04:06:38.535Z,9.07
2022-11-13T04:10:02.735Z,9.24
2022-11-13T04:13:26.138Z,9.25
2022-11-13T04:16:50.357Z,9.20
2022-11-13T04:20:14.188Z,9.17
2022-11-13T04:23:38.678Z,8.82
2022-11-13T04:27:02.048Z,9.05
2022-11-13T04:30:20.190Z,9.22
2022-11-13T04:33:42.648Z,9.19
2022-11-13T04:37:06.964Z,9.34
2022-11-13T04:40:30.305Z,9.42
2022-11-13T04:43:54.667Z,9.54
2022-11-13T04:47:19.400Z,9.61
2022-11-13T04:50:43.014Z,9.53
2022-11-13T04:54:06.046Z,9.54
2022-11-13T04:57:30.979Z,9.56
2022-11-13T05:00:55.291Z,9.45
2022-11-13T05:04:17.783Z,9.33
2022-11-13T05:07:42.011Z,9.57
2022-11-13T05:11:05.276Z,9.25
2022-11-13T05:14:21.471Z,9.22
2022-11-13T05:17:24.865Z,9.29
2022-11-13T05:20:49.322Z,9.29
2022-11-13T05:24:12.582Z,9.35
2022-11-13T05:27:36.811Z,9.26
2022-11-13T05:31:01.228Z,9.48
2022-11-13T05:34:18.091Z,9.60
2022-11-13T05:37:22.080Z,9.71
2022-11-13T05:40:32.086Z,9.97
2022-11-13T05:43:36.064Z,9.91
2022-11-13T05:46:47.291Z,9.90
2022-11-13T05:49:51.307Z,9.88
2022-11-13T05:53:02.331Z,9.79
2022-11-13T05:56:24.500Z,10.11
2022-11-13T05:59:47.883Z,10.16
2022-11-13T06:03:10.592Z,10.09
2022-11-13T06:06:34.696Z,10.30
2022-11-13T06:09:57.502Z,10.49
2022-11-13T06:13:21.264Z,10.48
2022-11-13T06:16:51.260Z,9.22
2022-11-13T06:20:15.034Z,10.16
2022-11-13T06:23:39.021Z,9.07
2022-11-13T06:27:02.130Z,9.68
2022-11-13T06:30:26.452Z,9.77
2022-11-13T06:33:49.919Z,10.10
2022-11-13T06:37:14.401Z,10.39
2022-11-13T06:40:38.406Z,10.20
2022-11-13T06:44:03.264Z,10.15
2022-11-13T06:47:20.825Z,10.12
2022-11-13T06:50:31.783Z,10.12
2022-11-13T06:53:55.672Z,10.46
2022-11-13T06:57:19.701Z,10.48
2022-11-13T07:00:44.060Z,10.52
2022-11-13T07:04:07.561Z,10.52
2022-11-13T07:07:30.486Z,10.46
2022-11-13T07:10:54.350Z,10.63
2022-11-13T07:14:19.669Z,10.49
2022-11-13T07:17:43.960Z,10.61
2022-11-13T07:21:08.305Z,10.66
2022-11-13T07:24:31.689Z,10.71
2022-11-13T07:28:00.677Z,10.93
2022-11-13T07:31:24.529Z,11.41
2022-11-13T07:34:41.319Z,11.21
2022-11-13T07:37:59.053Z,11.24
2022-11-13T07:41:22.602Z,11.59
2022-11-13T07:44:54.685Z,11.38
2022-11-13T07:48:16.264Z,11.50
2022-11-13T07:51:39.562Z,11.67
2022-11-13T07:55:04.237Z,11.70
2022-11-13T07:58:27.641Z,11.83
2022-11-13T08:01:52.091Z,11.89
2022-11-13T08:05:14.691Z,12.02
2022-11-13T08:08:38.077Z,12.03
2022-11-13T08:12:01.209Z,12.02
2022-11-13T08:15:26.052Z,11.95
2022-11-13T08:18:50.012Z,12.05
2022-11-13T08:22:13.783Z,12.12
2022-11-13T08:25:39.482Z,12.21
2022-11-13T08:29:04.162Z,12.09
2022-11-13T08:32:33.571Z,12.18
2022-11-13T08:35:56.476Z,12.17
2022-11-13T08:39:20.065Z,12.11
2022-11-13T08:42:36.593Z,12.05
2022-11-13T08:46:02.434Z,12.24
2022-11-13T08:49:25.396Z,12.14
2022-11-13T08:52:48.009Z,12.17
2022-11-13T08:56:12.399Z,12.33
2022-11-13T08:59:36.642Z,12.36
2022-11-13T09:02:59.841Z,12.41
2022-11-13T09:06:24.079Z,12.41
2022-11-13T09:09:48.739Z,12.49
2022-11-13T09:13:16.905Z,12.29
2022-11-13T09:16:41.126Z,12.26
2022-11-13T09:20:06.078Z,11.39
2022-11-13T09:23:29.167Z,11.51
2022-11-13T09:26:53.301Z,11.49
2022-11-13T09:30:17.126Z,11.65
2022-11-13T09:33:41.467Z,11.82
2022-11-13T09:37:05.548Z,11.77
2022-11-13T09:40:33.426Z,11.99
2022-11-13T09:44:10.747Z,12.06
2022-11-13T09:47:59.230Z,12.21
2022-11-13T09:51:29.563Z,12.30
2022-11-13T09:54:53.773Z,11.91
2022-11-13T09:58:30.878Z,12.34
2022-11-13T10:02:34.222Z,12.39
2022-11-13T10:06:17.001Z,12.42
2022-11-13T10:09:52.228Z,12.31
2022-11-13T10:13:11.471Z,12.51
2022-11-13T10:16:56.276Z,12.63
2022-11-13T10:20:30.021Z,12.93
2022-11-13T10:23:54.206Z,12.85
2022-11-13T10:27:20.832Z,12.86
2022-11-13T10:30:44.303Z,12.96
2022-11-13T10:34:09.055Z,13.12
2022-11-13T10:38:07.538Z,13.07
2022-11-13T10:41:29.000Z,13.02
2022-11-13T10:44:53.113Z,13.16
2022-11-13T10:48:16.635Z,13.08
2022-11-13T10:51:45.734Z,13.16
2022-11-13T10:55:46.380Z,13.40
2022-11-13T10:59:30.200Z,13.66
2022-11-13T11:02:53.549Z,13.52
2022-11-13T11:06:19.434Z,13.18
2022-11-13T11:09:46.495Z,13.46
2022-11-13T11:13:14.494Z,13.30
2022-11-13T11:16:38.876Z,13.61
2022-11-13T11:20:10.200Z,13.70
2022-11-13T11:24:08.567Z,13.61
2022-11-13T11:27:47.351Z,13.40
2022-11-13T11:31:33.697Z,13.34
2022-11-13T11:35:18.145Z,13.27
2022-11-13T11:38:54.763Z,13.20
2022-11-13T11:42:25.669Z,13.03
2022-11-13T11:45:45.217Z,13.22
2022-11-13T11:48:55.326Z,13.05
2022-11-13T11:52:34.777Z,12.88
2022-11-13T11:56:27.428Z,12.88
2022-11-13T12:00:26.735Z,12.79
2022-11-13T12:04:20.725Z,12.66
2022-11-13T12:08:16.573Z,12.77
2022-11-13T12:11:52.620Z,12.71
2022-11-13T12:15:26.607Z,12.78
2022-11-13T12:18:51.433Z,12.76
2022-11-13T12:22:38.907Z,12.68
2022-11-13T12:26:22.946Z,12.78
2022-11-13T12:30:20.276Z,12.71
2022-11-13T12:34:01.475Z,12.76
2022-11-13T12:37:26.026Z,12.74
2022-11-13T12:40:48.841Z,12.79
2022-11-13T12:44:16.725Z,12.77
2022-11-13T12:47:40.689Z,12.82
2022-11-13T12:51:24.232Z,12.66
2022-11-13T12:54:50.812Z,12.52
2022-11-13T12:58:41.013Z,12.59
2022-11-13T13:02:27.311Z,12.56
2022-11-13T13:06:21.195Z,12.43
2022-11-13T13:10:18.264Z,12.59
2022-11-13T13:13:52.432Z,12.58
2022-11-13T13:17:34.320Z,12.55
2022-11-13T13:21:15.464Z,12.53
2022-11-13T13:24:49.211Z,12.58
2022-11-13T13:28:26.834Z,12.46
2022-11-13T13:31:55.729Z,12.39
2022-11-13T13:35:33.859Z,12.42
2022-11-13T13:39:12.201Z,12.37
2022-11-13T13:42:48.374Z,12.18
2022-11-13T13:46:33.545Z,12.16
2022-11-13T13:49:57.898Z,12.11
2022-11-13T13:53:20.835Z,12.00
2022-11-13T13:56:44.466Z,11.82
2022-11-13T14:00:08.361Z,11.76
2022-11-13T14:03:29.834Z,11.74
2022-11-13T14:06:33.552Z,11.83
2022-11-13T14:09:43.517Z,11.83
2022-11-13T14:13:07.779Z,11.55
2022-11-13T14:16:30.497Z,11.63
2022-11-13T14:19:54.649Z,11.46
2022-11-13T14:23:19.118Z,11.42
2022-11-13T14:26:42.208Z,11.49
2022-11-13T14:30:08.380Z,11.19
2022-11-13T14:33:34.716Z,11.05
2022-11-13T14:37:00.272Z,11.24
2022-11-13T14:40:44.267Z,11.25
2022-11-13T14:44:08.398Z,11.22
2022-11-13T14:47:43.756Z,11.08
2022-11-13T14:51:15.170Z,11.04
2022-11-13T14:55:18.853Z,11.02
2022-11-13T14:58:14.754Z,10.78
2022-11-13T15:01:40.635Z,10.42
2022-11-13T15:05:04.335Z,10.55
2022-11-13T15:08:21.613Z,10.69
2022-11-13T15:11:47.687Z,10.56
2022-11-13T15:15:11.432Z,10.59
2022-11-13T15:18:36.711Z,10.64
2022-11-13T15:22:31.806Z,10.61
2022-11-13T15:25:34.913Z,10.60
2022-11-13T15:28:59.185Z,10.53
2022-11-13T15:32:20.842Z,10.51
2022-11-13T15:35:25.558Z,10.43
2022-11-13T15:38:35.541Z,10.29
2022-11-13T15:41:45.126Z,10.28
2022-11-13T15:45:03.207Z,10.31
2022-11-13T15:48:26.174Z,10.24
2022-11-13T15:51:50.571Z,10.03
2022-11-13T15:55:01.967Z,10.05
2022-11-13T15:58:33.510Z,9.98
2022-11-13T16:01:58.079Z,9.73
2022-11-13T16:05:15.786Z,9.67
2022-11-13T16:08:29.497Z,9.58
2022-11-13T16:11:53.110Z,9.66
2022-11-13T16:15:16.867Z,9.85
2022-11-13T16:18:42.751Z,9.73
2022-11-13T16:22:06.024Z,9.87
2022-11-13T16:25:33.216Z,10.03
2022-11-13T16:29:13.236Z,9.65
2022-11-13T16:32:29.305Z,9.76
2022-11-13T16:35:53.748Z,9.63
2022-11-13T16:39:18.633Z,9.72
2022-11-13T16:42:41.968Z,9.54
2022-11-13T16:46:06.086Z,9.22
2022-11-13T16:49:30.074Z,9.29
2022-11-13T16:52:53.994Z,9.42
2022-11-13T16:56:26.426Z,9.41
2022-11-13T16:59:50.700Z,9.38
2022-11-13T17:03:13.408Z,9.33
2022-11-13T17:06:47.651Z,9.42
2022-11-13T17:10:30.269Z,9.38
2022-11-13T17:13:36.512Z,9.19
2022-11-13T17:17:02.512Z,9.45
2022-11-13T17:20:20.185Z,9.48
2022-11-13T17:23:31.041Z,9.34
2022-11-13T17:26:55.709Z,9.27
2022-11-13T17:30:21.159Z,9.26
2022-11-13T17:33:39.818Z,9.11
2022-11-13T17:37:04.831Z,9.06
2022-11-13T17:40:28.712Z,8.91
2022-11-13T17:43:59.879Z,9.02
2022-11-13T17:47:19.475Z,8.90
2022-11-13T17:50:43.430Z,8.95
2022-11-13T17:54:07.564Z,8.95
2022-11-13T17:57:30.431Z,8.92
2022-11-13T18:00:55.274Z,8.99
2022-11-13T18:04:19.202Z,8.99
2022-11-13T18:07:43.210Z,8.90
2022-11-13T18:11:07.330Z,8.87
2022-11-13T18:14:26.019Z,8.78
2022-11-13T18:17:44.218Z,8.89
2022-11-13T18:21:13.907Z,8.86
2022-11-13T18:24:31.541Z,8.89
2022-11-13T18:27:55.346Z,8.95
2022-11-13T18:31:25.340Z,8.96
2022-11-13T18:34:47.963Z,9.01
2022-11-13T18:38:12.155Z,8.94
2022-11-13T18:41:37.639Z,9.00
2022-11-13T18:45:05.715Z,9.08
2022-11-13T18:48:25.896Z,9.16
2022-11-13T18:51:49.174Z,9.16
2022-11-13T18:55:11.344Z,9.10
2022-11-13T18:58:33.752Z,9.33
2022-11-13T19:01:58.118Z,9.31
2022-11-13T19:05:23.513Z,9.07
2022-11-13T19:08:40.902Z,9.18
2022-11-13T19:11:46.021Z,9.24
2022-11-13T19:14:57.631Z,9.23
2022-11-13T19:18:15.189Z,9.19
2022-11-13T19:21:35.559Z,9.27
2022-11-13T19:24:58.871Z,9.37
2022-11-13T19:28:22.130Z,9.47
2022-11-13T19:31:47.030Z,9.40
2022-11-13T19:35:10.346Z,9.25
2022-11-13T19:38:35.238Z,9.21
2022-11-13T19:41:59.620Z,9.22
2022-11-13T19:45:23.392Z,9.18
2022-11-13T19:48:47.512Z,9.00
2022-11-13T19:52:11.734Z,9.01
2022-11-13T19:55:35.545Z,8.88
2022-11-13T19:59:00.093Z,8.83
2022-11-13T20:02:18.785Z,8.86
2022-11-13T20:05:41.099Z,8.77
2022-11-13T20:09:04.728Z,8.67
2022-11-13T20:12:30.089Z,8.63
2022-11-13T20:15:54.500Z,8.33
2022-11-13T20:19:19.264Z,8.17
2022-11-13T20:22:43.731Z,8.44
2022-11-13T20:26:12.956Z,8.48
2022-11-13T20:29:38.781Z,8.45
2022-11-13T20:32:54.927Z,8.42
2022-11-13T20:36:18.424Z,8.39
2022-11-13T20:39:45.639Z,8.45
2022-11-13T20:43:03.339Z,8.56
2022-11-13T20:46:29.515Z,8.70
2022-11-13T20:49:52.101Z,8.54
2022-11-13T20:53:16.226Z,8.36
2022-11-13T20:56:40.549Z,8.29
2022-11-13T21:00:05.757Z,8.34
2022-11-13T21:03:29.049Z,8.33
2022-11-13T21:06:54.101Z,8.31
2022-11-13T21:10:17.437Z,8.18
2022-11-13T21:13:42.119Z,8.31
2022-11-13T21:17:05.745Z,8.35
2022-11-13T21:20:29.214Z,8.33
2022-11-13T21:23:53.008Z,8.36
2022-11-13T21:27:16.432Z,8.19
2022-11-13T21:30:34.089Z,8.24
2022-11-13T21:33:59.533Z,8.08
2022-11-13T21:37:22.964Z,8.10
2022-11-13T21:40:47.117Z,8.00
2022-11-13T21:44:17.676Z,7.93
2022-11-13T21:47:41.946Z,7.98
2022-11-13T21:51:05.720Z,8.07
2022-11-13T21:54:30.091Z,8.05
2022-11-13T21:57:56.496Z,8.01
2022-11-13T22:01:20.310Z,7.93
2022-11-13T22:04:44.802Z,7.96
2022-11-13T22:08:09.143Z,8.00
2022-11-13T22:11:32.576Z,7.91
2022-11-13T22:14:49.970Z,7.96
2022-11-13T22:18:13.125Z,8.01
2022-11-13T22:21:38.303Z,7.98
2022-11-13T22:24:55.433Z,7.73
2022-11-13T22:28:11.819Z,7.68
2022-11-13T22:31:41.458Z,7.73
2022-11-13T22:35:04.363Z,7.73
2022-11-13T22:38:28.475Z,7.66
2022-11-13T22:41:52.789Z,7.37
2022-11-13T22:45:23.556Z,7.51
2022-11-13T22:48:42.058Z,7.64
2022-11-13T22:52:06.745Z,7.67
2022-11-13T22:55:29.912Z,7.62
2022-11-13T22:58:53.214Z,7.67
2022-11-13T23:02:16.242Z,7.61
2022-11-13T23:05:39.355Z,7.56
2022-11-13T23:09:03.160Z,7.50
2022-11-13T23:12:29.432Z,7.51
2022-11-13T23:15:53.161Z,7.53
2022-11-13T23:19:17.510Z,7.59
2022-11-13T23:22:41.369Z,7.59
2022-11-13T23:26:05.588Z,7.55
2022-11-13T23:29:29.050Z,7.47
2022-11-13T23:32:46.321Z,7.23
2022-11-13T23:36:10.565Z,7.11
2022-11-13T23:39:34.191Z,7.20
2022-11-13T23:42:59.032Z,7.10
2022-11-13T23:46:23.422Z,7.05
2022-11-13T23:49:47.449Z,7.18
2022-11-13T23:53:11.345Z,7.08
2022-11-13T23:56:36.016Z,7.10
